sensor_id;sensor_type;location;lat;lon;timestamp;temperature;humidity
7234;DHT22;3658;47.992;10.158;2023-08-07T00:00:36;21.30;58.80
7234;DHT22;3658;47.992;10.158;2023-08-07T00:03:03;21.30;58.80
7234;DHT22;3658;47.992;10.158;2023-08-07T00:05:30;21.20;58.80
7234;DHT22;3658;47.992;10.158;2023-08-07T00:07:57;21.30;58.80
7234;DHT22;3658;47.992;10.158;2023-08-07T00:10:25;21.30;58.90
7234;DHT22;3658;47.992;10.158;2023-08-07T00:12:52;21.20;58.80
7234;DHT22;3658;47.992;10.158;2023-08-07T00:15:19;21.20;58.80
7234;DHT22;3658;47.992;10.158;2023-08-07T00:17:45;21.30;58.80
7234;DHT22;3658;47.992;10.158;2023-08-07T00:20:12;21.30;58.80
7234;DHT22;3658;47.992;10.158;2023-08-07T00:22:39;21.30;58.90
7234;DHT22;3658;47.992;10.158;2023-08-07T00:25:06;21.30;58.80
7234;DHT22;3658;47.992;10.158;2023-08-07T00:27:35;21.20;58.80
7234;DHT22;3658;47.992;10.158;2023-08-07T00:30:02;21.20;58.80
7234;DHT22;3658;47.992;10.158;2023-08-07T00:32:28;21.20;58.80
7234;DHT22;3658;47.992;10.158;2023-08-07T00:34:55;21.20;58.80
7234;DHT22;3658;47.992;10.158;2023-08-07T00:37:22;21.20;58.80
7234;DHT22;3658;47.992;10.158;2023-08-07T00:39:49;21.20;58.80
7234;DHT22;3658;47.992;10.158;2023-08-07T00:42:15;21.20;58.80
7234;DHT22;3658;47.992;10.158;2023-08-07T00:44:44;21.20;58.80
7234;DHT22;3658;47.992;10.158;2023-08-07T00:47:11;21.20;58.80
7234;DHT22;3658;47.992;10.158;2023-08-07T00:49:37;21.20;58.80
7234;DHT22;3658;47.992;10.158;2023-08-07T00:52:05;21.20;58.80
7234;DHT22;3658;47.992;10.158;2023-08-07T00:54:32;21.20;58.80
7234;DHT22;3658;47.992;10.158;2023-08-07T00:57:06;21.20;58.70
7234;DHT22;3658;47.992;10.158;2023-08-07T00:59:34;21.20;58.70
7234;DHT22;3658;47.992;10.158;2023-08-07T01:02:02;21.20;58.70
7234;DHT22;3658;47.992;10.158;2023-08-07T01:04:30;21.20;58.80
7234;DHT22;3658;47.992;10.158;2023-08-07T01:06:57;21.20;58.80
7234;DHT22;3658;47.992;10.158;2023-08-07T01:09:24;21.20;58.80
7234;DHT22;3658;47.992;10.158;2023-08-07T01:11:56;21.20;58.80
7234;DHT22;3658;47.992;10.158;2023-08-07T01:14:30;21.20;58.80
7234;DHT22;3658;47.992;10.158;2023-08-07T01:17:05;21.20;58.80
7234;DHT22;3658;47.992;10.158;2023-08-07T01:19:34;21.20;58.70
7234;DHT22;3658;47.992;10.158;2023-08-07T01:22:06;21.20;58.70
7234;DHT22;3658;47.992;10.158;2023-08-07T01:24:33;21.20;58.70
7234;DHT22;3658;47.992;10.158;2023-08-07T01:27:07;21.20;58.70
7234;DHT22;3658;47.992;10.158;2023-08-07T01:29:43;21.20;58.80
7234;DHT22;3658;47.992;10.158;2023-08-07T01:32:14;21.20;58.80
7234;DHT22;3658;47.992;10.158;2023-08-07T01:34:44;21.20;58.80
7234;DHT22;3658;47.992;10.158;2023-08-07T01:37:14;21.20;58.70
7234;DHT22;3658;47.992;10.158;2023-08-07T01:39:42;21.20;58.70
7234;DHT22;3658;47.992;10.158;2023-08-07T01:42:10;21.20;58.70
7234;DHT22;3658;47.992;10.158;2023-08-07T01:44:37;21.10;58.60
7234;DHT22;3658;47.992;10.158;2023-08-07T01:47:05;21.20;58.70
7234;DHT22;3658;47.992;10.158;2023-08-07T01:49:32;21.20;58.80
7234;DHT22;3658;47.992;10.158;2023-08-07T01:51:58;21.20;58.80
7234;DHT22;3658;47.992;10.158;2023-08-07T01:54:26;21.20;58.70
7234;DHT22;3658;47.992;10.158;2023-08-07T01:56:53;21.20;58.70
7234;DHT22;3658;47.992;10.158;2023-08-07T01:59:20;21.20;58.70
7234;DHT22;3658;47.992;10.158;2023-08-07T02:01:47;21.20;58.70
7234;DHT22;3658;47.992;10.158;2023-08-07T02:04:14;21.20;58.70
7234;DHT22;3658;47.992;10.158;2023-08-07T02:06:40;21.10;58.60
7234;DHT22;3658;47.992;10.158;2023-08-07T02:09:07;21.20;58.70
7234;DHT22;3658;47.992;10.158;2023-08-07T02:11:35;21.20;58.70
7234;DHT22;3658;47.992;10.158;2023-08-07T02:14:02;21.10;58.60
7234;DHT22;3658;47.992;10.158;2023-08-07T02:16:29;21.20;58.70
7234;DHT22;3658;47.992;10.158;2023-08-07T02:18:55;21.10;58.60
7234;DHT22;3658;47.992;10.158;2023-08-07T02:21:22;21.10;58.60
7234;DHT22;3658;47.992;10.158;2023-08-07T02:23:49;21.10;58.60
7234;DHT22;3658;47.992;10.158;2023-08-07T02:26:16;21.10;58.60
7234;DHT22;3658;47.992;10.158;2023-08-07T02:28:44;21.10;58.60
7234;DHT22;3658;47.992;10.158;2023-08-07T02:31:10;21.10;58.60
7234;DHT22;3658;47.992;10.158;2023-08-07T02:33:37;21.10;58.60
7234;DHT22;3658;47.992;10.158;2023-08-07T02:36:04;21.10;58.60
7234;DHT22;3658;47.992;10.158;2023-08-07T02:38:31;21.10;58.60
7234;DHT22;3658;47.992;10.158;2023-08-07T02:40:58;21.10;58.60
7234;DHT22;3658;47.992;10.158;2023-08-07T02:43:25;21.10;58.60
7234;DHT22;3658;47.992;10.158;2023-08-07T02:45:55;21.10;58.60
7234;DHT22;3658;47.992;10.158;2023-08-07T02:48:22;21.10;58.60
7234;DHT22;3658;47.992;10.158;2023-08-07T02:50:48;21.10;58.60
7234;DHT22;3658;47.992;10.158;2023-08-07T02:53:17;21.10;58.60
7234;DHT22;3658;47.992;10.158;2023-08-07T02:55:44;21.10;58.60
7234;DHT22;3658;47.992;10.158;2023-08-07T02:58:10;21.10;58.60
7234;DHT22;3658;47.992;10.158;2023-08-07T03:00:37;21.10;58.60
7234;DHT22;3658;47.992;10.158;2023-08-07T03:03:05;21.10;58.60
7234;DHT22;3658;47.992;10.158;2023-08-07T03:05:32;21.10;58.60
7234;DHT22;3658;47.992;10.158;2023-08-07T03:07:59;21.10;58.50
7234;DHT22;3658;47.992;10.158;2023-08-07T03:10:26;21.10;58.60
7234;DHT22;3658;47.992;10.158;2023-08-07T03:12:52;21.10;58.50
7234;DHT22;3658;47.992;10.158;2023-08-07T03:15:19;21.10;58.50
7234;DHT22;3658;47.992;10.158;2023-08-07T03:17:46;21.10;58.60
7234;DHT22;3658;47.992;10.158;2023-08-07T03:20:14;21.10;58.50
7234;DHT22;3658;47.992;10.158;2023-08-07T03:22:41;21.10;58.60
7234;DHT22;3658;47.992;10.158;2023-08-07T03:25:08;21.10;58.60
7234;DHT22;3658;47.992;10.158;2023-08-07T03:27:35;21.10;58.60
7234;DHT22;3658;47.992;10.158;2023-08-07T03:30:03;21.10;58.60
7234;DHT22;3658;47.992;10.158;2023-08-07T03:32:30;21.10;58.60
7234;DHT22;3658;47.992;10.158;2023-08-07T03:34:56;21.10;58.60
7234;DHT22;3658;47.992;10.158;2023-08-07T03:37:24;21.10;59.20
7234;DHT22;3658;47.992;10.158;2023-08-07T03:39:51;21.10;58.60
7234;DHT22;3658;47.992;10.158;2023-08-07T03:42:18;21.10;58.50
7234;DHT22;3658;47.992;10.158;2023-08-07T03:44:45;21.10;58.60
7234;DHT22;3658;47.992;10.158;2023-08-07T03:47:11;21.10;58.60
7234;DHT22;3658;47.992;10.158;2023-08-07T03:49:39;21.10;58.50
7234;DHT22;3658;47.992;10.158;2023-08-07T03:52:06;21.10;58.50
7234;DHT22;3658;47.992;10.158;2023-08-07T03:54:34;21.10;58.60
7234;DHT22;3658;47.992;10.158;2023-08-07T03:57:01;21.10;58.60
7234;DHT22;3658;47.992;10.158;2023-08-07T03:59:28;21.10;58.60
7234;DHT22;3658;47.992;10.158;2023-08-07T04:01:55;21.10;58.60
7234;DHT22;3658;47.992;10.158;2023-08-07T04:04:22;21.10;58.60
7234;DHT22;3658;47.992;10.158;2023-08-07T04:06:48;21.00;58.50
7234;DHT22;3658;47.992;10.158;2023-08-07T04:09:15;21.10;58.60
7234;DHT22;3658;47.992;10.158;2023-08-07T04:11:44;21.10;58.60
7234;DHT22;3658;47.992;10.158;2023-08-07T04:14:10;21.00;58.80
7234;DHT22;3658;47.992;10.158;2023-08-07T04:16:37;21.10;59.30
7234;DHT22;3658;47.992;10.158;2023-08-07T04:19:04;21.20;59.60
7234;DHT22;3658;47.992;10.158;2023-08-07T04:21:32;21.20;59.70
7234;DHT22;3658;47.992;10.158;2023-08-07T04:23:59;21.20;60.70
7234;DHT22;3658;47.992;10.158;2023-08-07T04:26:25;21.20;60.10
7234;DHT22;3658;47.992;10.158;2023-08-07T04:28:54;21.20;59.70
7234;DHT22;3658;47.992;10.158;2023-08-07T04:31:20;21.10;59.50
7234;DHT22;3658;47.992;10.158;2023-08-07T04:33:48;21.10;59.50
7234;DHT22;3658;47.992;10.158;2023-08-07T04:36:15;21.10;59.60
7234;DHT22;3658;47.992;10.158;2023-08-07T04:38:41;21.10;59.50
7234;DHT22;3658;47.992;10.158;2023-08-07T04:41:08;21.10;59.50
7234;DHT22;3658;47.992;10.158;2023-08-07T04:43:35;21.10;59.40
7234;DHT22;3658;47.992;10.158;2023-08-07T04:46:04;21.10;59.20
7234;DHT22;3658;47.992;10.158;2023-08-07T04:48:30;21.10;59.30
7234;DHT22;3658;47.992;10.158;2023-08-07T04:50:58;21.10;59.20
7234;DHT22;3658;47.992;10.158;2023-08-07T04:53:25;21.10;59.10
7234;DHT22;3658;47.992;10.158;2023-08-07T04:55:52;21.10;59.40
7234;DHT22;3658;47.992;10.158;2023-08-07T04:58:18;21.20;59.60
7234;DHT22;3658;47.992;10.158;2023-08-07T05:00:45;21.10;59.50
7234;DHT22;3658;47.992;10.158;2023-08-07T05:03:13;21.20;59.40
7234;DHT22;3658;47.992;10.158;2023-08-07T05:05:43;21.20;59.30
7234;DHT22;3658;47.992;10.158;2023-08-07T05:08:10;21.20;59.40
7234;DHT22;3658;47.992;10.158;2023-08-07T05:10:37;21.20;59.40
7234;DHT22;3658;47.992;10.158;2023-08-07T05:13:04;21.10;59.30
7234;DHT22;3658;47.992;10.158;2023-08-07T05:15:31;21.20;59.40
7234;DHT22;3658;47.992;10.158;2023-08-07T05:17:58;21.10;59.30
7234;DHT22;3658;47.992;10.158;2023-08-07T05:20:26;21.10;59.30
7234;DHT22;3658;47.992;10.158;2023-08-07T05:22:53;21.10;59.30
7234;DHT22;3658;47.992;10.158;2023-08-07T05:25:21;21.10;59.20
7234;DHT22;3658;47.992;10.158;2023-08-07T05:27:48;21.20;59.20
7234;DHT22;3658;47.992;10.158;2023-08-07T05:30:15;21.20;59.20
7234;DHT22;3658;47.992;10.158;2023-08-07T05:32:42;21.20;59.30
7234;DHT22;3658;47.992;10.158;2023-08-07T05:35:09;21.20;59.20
7234;DHT22;3658;47.992;10.158;2023-08-07T05:37:38;21.20;59.60
7234;DHT22;3658;47.992;10.158;2023-08-07T05:40:06;21.20;60.30
7234;DHT22;3658;47.992;10.158;2023-08-07T05:42:33;21.30;60.40
7234;DHT22;3658;47.992;10.158;2023-08-07T05:45:00;21.30;60.40
7234;DHT22;3658;47.992;10.158;2023-08-07T05:47:27;21.40;59.70
7234;DHT22;3658;47.992;10.158;2023-08-07T05:49:54;21.40;59.30
7234;DHT22;3658;47.992;10.158;2023-08-07T05:52:20;21.50;59.30
7234;DHT22;3658;47.992;10.158;2023-08-07T05:54:49;21.60;59.30
7234;DHT22;3658;47.992;10.158;2023-08-07T05:57:17;21.70;59.30
7234;DHT22;3658;47.992;10.158;2023-08-07T05:59:44;21.70;59.30
7234;DHT22;3658;47.992;10.158;2023-08-07T06:02:11;21.80;59.40
7234;DHT22;3658;47.992;10.158;2023-08-07T06:04:38;21.80;59.30
7234;DHT22;3658;47.992;10.158;2023-08-07T06:07:06;21.90;59.20
7234;DHT22;3658;47.992;10.158;2023-08-07T06:09:33;21.90;59.10
7234;DHT22;3658;47.992;10.158;2023-08-07T06:12:01;21.90;59.00
7234;DHT22;3658;47.992;10.158;2023-08-07T06:14:28;21.90;59.10
7234;DHT22;3658;47.992;10.158;2023-08-07T06:16:55;21.90;59.10
7234;DHT22;3658;47.992;10.158;2023-08-07T06:19:23;21.90;59.20
7234;DHT22;3658;47.992;10.158;2023-08-07T06:21:52;21.80;59.20
7234;DHT22;3658;47.992;10.158;2023-08-07T06:24:19;21.80;59.40
7234;DHT22;3658;47.992;10.158;2023-08-07T06:26:46;21.90;59.30
7234;DHT22;3658;47.992;10.158;2023-08-07T06:29:14;21.80;59.30
7234;DHT22;3658;47.992;10.158;2023-08-07T06:31:40;21.80;59.30
7234;DHT22;3658;47.992;10.158;2023-08-07T06:34:08;21.80;59.30
7234;DHT22;3658;47.992;10.158;2023-08-07T06:36:36;21.80;59.30
7234;DHT22;3658;47.992;10.158;2023-08-07T06:39:03;21.80;59.20
7234;DHT22;3658;47.992;10.158;2023-08-07T06:41:30;21.80;59.40
7234;DHT22;3658;47.992;10.158;2023-08-07T06:43:58;21.80;59.60
7234;DHT22;3658;47.992;10.158;2023-08-07T06:46:26;21.80;59.70
7234;DHT22;3658;47.992;10.158;2023-08-07T06:48:55;21.80;59.60
7234;DHT22;3658;47.992;10.158;2023-08-07T06:51:24;21.80;59.50
7234;DHT22;3658;47.992;10.158;2023-08-07T06:53:51;21.80;59.20
7234;DHT22;3658;47.992;10.158;2023-08-07T06:56:18;21.80;59.30
7234;DHT22;3658;47.992;10.158;2023-08-07T06:58:45;21.80;59.30
7234;DHT22;3658;47.992;10.158;2023-08-07T07:01:11;21.80;59.30
7234;DHT22;3658;47.992;10.158;2023-08-07T07:03:40;21.80;59.30
7234;DHT22;3658;47.992;10.158;2023-08-07T07:06:06;21.80;59.10
7234;DHT22;3658;47.992;10.158;2023-08-07T07:08:33;21.80;59.20
7234;DHT22;3658;47.992;10.158;2023-08-07T07:11:00;21.80;59.20
7234;DHT22;3658;47.992;10.158;2023-08-07T07:13:27;21.80;59.30
7234;DHT22;3658;47.992;10.158;2023-08-07T07:15:54;21.70;59.20
7234;DHT22;3658;47.992;10.158;2023-08-07T07:18:21;21.80;59.30
7234;DHT22;3658;47.992;10.158;2023-08-07T07:20:56;21.70;59.30
7234;DHT22;3658;47.992;10.158;2023-08-07T07:23:23;21.80;59.40
7234;DHT22;3658;47.992;10.158;2023-08-07T07:25:49;21.70;59.40
7234;DHT22;3658;47.992;10.158;2023-08-07T07:28:16;21.70;59.40
7234;DHT22;3658;47.992;10.158;2023-08-07T07:30:43;21.70;59.60
7234;DHT22;3658;47.992;10.158;2023-08-07T07:33:10;21.70;59.40
7234;DHT22;3658;47.992;10.158;2023-08-07T07:35:39;21.70;59.50
7234;DHT22;3658;47.992;10.158;2023-08-07T07:38:07;21.70;59.50
7234;DHT22;3658;47.992;10.158;2023-08-07T07:40:35;21.70;59.60
7234;DHT22;3658;47.992;10.158;2023-08-07T07:43:03;21.70;59.50
7234;DHT22;3658;47.992;10.158;2023-08-07T07:45:30;21.70;59.50
7234;DHT22;3658;47.992;10.158;2023-08-07T07:47:59;21.70;59.50
7234;DHT22;3658;47.992;10.158;2023-08-07T07:50:26;21.80;59.70
7234;DHT22;3658;47.992;10.158;2023-08-07T07:52:52;21.80;59.70
7234;DHT22;3658;47.992;10.158;2023-08-07T07:55:21;21.70;59.40
7234;DHT22;3658;47.992;10.158;2023-08-07T07:57:47;21.70;59.70
7234;DHT22;3658;47.992;10.158;2023-08-07T08:00:15;21.70;59.80
7234;DHT22;3658;47.992;10.158;2023-08-07T08:02:42;21.70;59.70
7234;DHT22;3658;47.992;10.158;2023-08-07T08:05:09;21.70;59.70
7234;DHT22;3658;47.992;10.158;2023-08-07T08:07:37;21.70;59.70
7234;DHT22;3658;47.992;10.158;2023-08-07T08:10:05;21.70;59.80
7234;DHT22;3658;47.992;10.158;2023-08-07T08:12:34;21.70;59.70
7234;DHT22;3658;47.992;10.158;2023-08-07T08:15:01;21.70;59.70
7234;DHT22;3658;47.992;10.158;2023-08-07T08:17:28;21.70;59.80
7234;DHT22;3658;47.992;10.158;2023-08-07T08:19:55;21.70;59.90
7234;DHT22;3658;47.992;10.158;2023-08-07T08:22:22;21.70;59.80
7234;DHT22;3658;47.992;10.158;2023-08-07T08:24:49;21.60;59.80
7234;DHT22;3658;47.992;10.158;2023-08-07T08:27:16;21.60;59.80
7234;DHT22;3658;47.992;10.158;2023-08-07T08:29:45;21.60;59.80
7234;DHT22;3658;47.992;10.158;2023-08-07T08:32:12;21.70;59.70
7234;DHT22;3658;47.992;10.158;2023-08-07T08:34:39;21.60;59.70
7234;DHT22;3658;47.992;10.158;2023-08-07T08:37:07;21.60;59.70
7234;DHT22;3658;47.992;10.158;2023-08-07T08:39:36;21.70;59.80
7234;DHT22;3658;47.992;10.158;2023-08-07T08:42:03;21.60;59.70
7234;DHT22;3658;47.992;10.158;2023-08-07T08:44:31;21.60;59.80
7234;DHT22;3658;47.992;10.158;2023-08-07T08:47:04;21.60;59.70
7234;DHT22;3658;47.992;10.158;2023-08-07T08:49:35;21.60;59.80
7234;DHT22;3658;47.992;10.158;2023-08-07T08:52:03;21.70;59.60
7234;DHT22;3658;47.992;10.158;2023-08-07T08:54:30;21.70;59.60
7234;DHT22;3658;47.992;10.158;2023-08-07T08:56:58;21.70;59.70
7234;DHT22;3658;47.992;10.158;2023-08-07T08:59:25;21.70;59.50
7234;DHT22;3658;47.992;10.158;2023-08-07T09:01:52;21.60;59.80
7234;DHT22;3658;47.992;10.158;2023-08-07T09:04:20;21.60;59.90
7234;DHT22;3658;47.992;10.158;2023-08-07T09:06:47;21.60;59.90
7234;DHT22;3658;47.992;10.158;2023-08-07T09:09:14;21.60;59.90
7234;DHT22;3658;47.992;10.158;2023-08-07T09:11:44;21.70;60.00
7234;DHT22;3658;47.992;10.158;2023-08-07T09:14:16;21.60;59.80
7234;DHT22;3658;47.992;10.158;2023-08-07T09:16:44;21.70;59.90
7234;DHT22;3658;47.992;10.158;2023-08-07T09:19:12;21.70;59.90
7234;DHT22;3658;47.992;10.158;2023-08-07T09:21:40;21.70;60.00
7234;DHT22;3658;47.992;10.158;2023-08-07T09:24:07;21.60;60.10
7234;DHT22;3658;47.992;10.158;2023-08-07T09:26:34;21.70;60.40
7234;DHT22;3658;47.992;10.158;2023-08-07T09:29:02;21.70;60.40
7234;DHT22;3658;47.992;10.158;2023-08-07T09:31:29;21.60;61.20
7234;DHT22;3658;47.992;10.158;2023-08-07T09:34:01;21.60;60.00
7234;DHT22;3658;47.992;10.158;2023-08-07T09:36:30;21.60;59.80
7234;DHT22;3658;47.992;10.158;2023-08-07T09:39:02;21.50;59.70
7234;DHT22;3658;47.992;10.158;2023-08-07T09:41:29;21.60;59.70
7234;DHT22;3658;47.992;10.158;2023-08-07T09:43:57;21.60;60.70
7234;DHT22;3658;47.992;10.158;2023-08-07T09:46:25;21.60;60.80
7234;DHT22;3658;47.992;10.158;2023-08-07T09:48:52;21.60;60.70
7234;DHT22;3658;47.992;10.158;2023-08-07T09:51:24;21.60;61.00
7234;DHT22;3658;47.992;10.158;2023-08-07T09:53:50;21.70;61.50
7234;DHT22;3658;47.992;10.158;2023-08-07T09:56:18;21.70;61.60
7234;DHT22;3658;47.992;10.158;2023-08-07T09:58:48;21.70;61.30
7234;DHT22;3658;47.992;10.158;2023-08-07T10:01:16;21.70;61.50
7234;DHT22;3658;47.992;10.158;2023-08-07T10:03:45;21.70;61.30
7234;DHT22;3658;47.992;10.158;2023-08-07T10:06:12;21.70;61.50
7234;DHT22;3658;47.992;10.158;2023-08-07T10:08:40;21.70;61.20
7234;DHT22;3658;47.992;10.158;2023-08-07T10:11:08;21.70;61.40
7234;DHT22;3658;47.992;10.158;2023-08-07T10:13:38;21.70;61.70
7234;DHT22;3658;47.992;10.158;2023-08-07T10:16:04;21.60;61.20
7234;DHT22;3658;47.992;10.158;2023-08-07T10:18:31;21.70;60.80
7234;DHT22;3658;47.992;10.158;2023-08-07T10:21:00;21.60;60.50
7234;DHT22;3658;47.992;10.158;2023-08-07T10:23:27;21.50;58.90
7234;DHT22;3658;47.992;10.158;2023-08-07T10:25:55;21.40;58.30
7234;DHT22;3658;47.992;10.158;2023-08-07T10:28:24;21.40;57.30
7234;DHT22;3658;47.992;10.158;2023-08-07T10:30:53;21.30;56.60
7234;DHT22;3658;47.992;10.158;2023-08-07T10:33:20;21.30;57.20
7234;DHT22;3658;47.992;10.158;2023-08-07T10:35:48;21.20;57.50
7234;DHT22;3658;47.992;10.158;2023-08-07T10:38:15;21.10;57.40
7234;DHT22;3658;47.992;10.158;2023-08-07T10:41:06;21.10;57.50
7234;DHT22;3658;47.992;10.158;2023-08-07T10:43:37;21.10;57.10
7234;DHT22;3658;47.992;10.158;2023-08-07T10:46:06;21.10;56.90
7234;DHT22;3658;47.992;10.158;2023-08-07T10:48:41;21.10;56.70
7234;DHT22;3658;47.992;10.158;2023-08-07T10:51:08;21.00;56.60
7234;DHT22;3658;47.992;10.158;2023-08-07T10:53:36;21.10;56.80
7234;DHT22;3658;47.992;10.158;2023-08-07T10:56:05;21.00;56.60
7234;DHT22;3658;47.992;10.158;2023-08-07T10:58:33;21.00;56.20
7234;DHT22;3658;47.992;10.158;2023-08-07T11:01:19;21.00;56.20
7234;DHT22;3658;47.992;10.158;2023-08-07T11:03:48;21.00;56.20
7234;DHT22;3658;47.992;10.158;2023-08-07T11:06:16;21.00;54.90
7234;DHT22;3658;47.992;10.158;2023-08-07T11:08:42;21.00;55.20
7234;DHT22;3658;47.992;10.158;2023-08-07T11:11:09;21.10;54.90
7234;DHT22;3658;47.992;10.158;2023-08-07T11:13:36;21.10;54.80
7234;DHT22;3658;47.992;10.158;2023-08-07T11:16:04;21.10;54.60
7234;DHT22;3658;47.992;10.158;2023-08-07T11:18:32;21.10;54.60
7234;DHT22;3658;47.992;10.158;2023-08-07T11:21:01;21.20;54.80
7234;DHT22;3658;47.992;10.158;2023-08-07T11:23:28;21.20;54.80
7234;DHT22;3658;47.992;10.158;2023-08-07T11:25:55;21.20;54.90
7234;DHT22;3658;47.992;10.158;2023-08-07T11:28:23;21.20;55.10
7234;DHT22;3658;47.992;10.158;2023-08-07T11:30:51;21.20;55.10
7234;DHT22;3658;47.992;10.158;2023-08-07T11:33:18;21.20;55.30
7234;DHT22;3658;47.992;10.158;2023-08-07T11:35:47;21.20;55.30
7234;DHT22;3658;47.992;10.158;2023-08-07T11:38:29;21.30;56.00
7234;DHT22;3658;47.992;10.158;2023-08-07T11:40:57;21.30;55.60
7234;DHT22;3658;47.992;10.158;2023-08-07T11:43:26;21.40;55.70
7234;DHT22;3658;47.992;10.158;2023-08-07T11:45:53;21.60;55.50
7234;DHT22;3658;47.992;10.158;2023-08-07T11:48:22;21.70;55.30
7234;DHT22;3658;47.992;10.158;2023-08-07T11:50:51;21.80;55.70
7234;DHT22;3658;47.992;10.158;2023-08-07T11:53:19;21.90;54.90
7234;DHT22;3658;47.992;10.158;2023-08-07T11:55:47;21.90;54.60
7234;DHT22;3658;47.992;10.158;2023-08-07T11:58:15;21.90;54.50
7234;DHT22;3658;47.992;10.158;2023-08-07T12:00:43;21.90;54.40
7234;DHT22;3658;47.992;10.158;2023-08-07T12:03:26;21.90;54.40
7234;DHT22;3658;47.992;10.158;2023-08-07T12:05:57;21.90;54.30
7234;DHT22;3658;47.992;10.158;2023-08-07T12:08:24;21.90;54.40
7234;DHT22;3658;47.992;10.158;2023-08-07T12:10:51;21.90;54.40
7234;DHT22;3658;47.992;10.158;2023-08-07T12:13:23;21.90;54.40
7234;DHT22;3658;47.992;10.158;2023-08-07T12:15:52;21.90;54.50
7234;DHT22;3658;47.992;10.158;2023-08-07T12:18:19;21.90;54.40
7234;DHT22;3658;47.992;10.158;2023-08-07T12:20:49;21.90;54.20
7234;DHT22;3658;47.992;10.158;2023-08-07T12:23:18;21.80;54.20
7234;DHT22;3658;47.992;10.158;2023-08-07T12:25:45;21.90;54.30
7234;DHT22;3658;47.992;10.158;2023-08-07T12:28:12;21.90;54.10
7234;DHT22;3658;47.992;10.158;2023-08-07T12:30:39;21.90;54.10
7234;DHT22;3658;47.992;10.158;2023-08-07T12:33:06;21.90;54.10
7234;DHT22;3658;47.992;10.158;2023-08-07T12:35:33;21.90;53.80
7234;DHT22;3658;47.992;10.158;2023-08-07T12:38:01;21.90;53.90
7234;DHT22;3658;47.992;10.158;2023-08-07T12:40:30;21.90;53.80
7234;DHT22;3658;47.992;10.158;2023-08-07T12:42:57;21.90;53.80
7234;DHT22;3658;47.992;10.158;2023-08-07T12:45:24;21.90;53.90
7234;DHT22;3658;47.992;10.158;2023-08-07T12:47:51;21.90;53.90
7234;DHT22;3658;47.992;10.158;2023-08-07T12:50:18;21.90;53.90
7234;DHT22;3658;47.992;10.158;2023-08-07T12:52:45;21.90;54.10
7234;DHT22;3658;47.992;10.158;2023-08-07T12:55:12;21.90;54.10
7234;DHT22;3658;47.992;10.158;2023-08-07T12:57:41;21.80;53.70
7234;DHT22;3658;47.992;10.158;2023-08-07T13:00:09;21.80;53.80
7234;DHT22;3658;47.992;10.158;2023-08-07T13:02:38;21.80;53.80
7234;DHT22;3658;47.992;10.158;2023-08-07T13:05:05;21.80;53.90
7234;DHT22;3658;47.992;10.158;2023-08-07T13:07:32;21.80;54.00
7234;DHT22;3658;47.992;10.158;2023-08-07T13:09:58;21.80;54.00
7234;DHT22;3658;47.992;10.158;2023-08-07T13:12:25;21.80;54.10
7234;DHT22;3658;47.992;10.158;2023-08-07T13:14:53;21.80;53.90
7234;DHT22;3658;47.992;10.158;2023-08-07T13:17:20;21.70;54.70
7234;DHT22;3658;47.992;10.158;2023-08-07T13:19:47;21.70;54.20
7234;DHT22;3658;47.992;10.158;2023-08-07T13:22:14;21.80;54.10
7234;DHT22;3658;47.992;10.158;2023-08-07T13:24:40;21.80;54.00
7234;DHT22;3658;47.992;10.158;2023-08-07T13:27:07;21.80;53.80
7234;DHT22;3658;47.992;10.158;2023-08-07T13:29:34;21.80;54.00
7234;DHT22;3658;47.992;10.158;2023-08-07T13:32:02;21.80;54.10
7234;DHT22;3658;47.992;10.158;2023-08-07T13:34:34;21.80;54.30
7234;DHT22;3658;47.992;10.158;2023-08-07T13:37:01;21.80;54.40
7234;DHT22;3658;47.992;10.158;2023-08-07T13:39:28;21.80;54.60
7234;DHT22;3658;47.992;10.158;2023-08-07T13:41:55;21.80;54.70
7234;DHT22;3658;47.992;10.158;2023-08-07T13:44:21;21.80;55.00
7234;DHT22;3658;47.992;10.158;2023-08-07T13:46:48;21.80;55.20
7234;DHT22;3658;47.992;10.158;2023-08-07T13:49:16;21.80;55.10
7234;DHT22;3658;47.992;10.158;2023-08-07T13:51:43;21.80;55.00
7234;DHT22;3658;47.992;10.158;2023-08-07T13:54:10;21.80;54.80
7234;DHT22;3658;47.992;10.158;2023-08-07T13:56:37;21.70;54.50
7234;DHT22;3658;47.992;10.158;2023-08-07T13:59:04;21.70;54.70
7234;DHT22;3658;47.992;10.158;2023-08-07T14:01:31;21.70;54.80
7234;DHT22;3658;47.992;10.158;2023-08-07T14:03:58;21.70;54.90
7234;DHT22;3658;47.992;10.158;2023-08-07T14:06:27;21.70;54.80
7234;DHT22;3658;47.992;10.158;2023-08-07T14:08:53;21.70;54.80
7234;DHT22;3658;47.992;10.158;2023-08-07T14:11:20;21.70;54.50
7234;DHT22;3658;47.992;10.158;2023-08-07T14:13:50;21.80;54.90
7234;DHT22;3658;47.992;10.158;2023-08-07T14:16:17;21.70;54.90
7234;DHT22;3658;47.992;10.158;2023-08-07T14:18:43;21.70;54.90
7234;DHT22;3658;47.992;10.158;2023-08-07T14:21:10;21.70;54.80
7234;DHT22;3658;47.992;10.158;2023-08-07T14:23:38;21.70;54.70
7234;DHT22;3658;47.992;10.158;2023-08-07T14:26:07;21.70;54.70
7234;DHT22;3658;47.992;10.158;2023-08-07T14:28:34;21.70;54.80
7234;DHT22;3658;47.992;10.158;2023-08-07T14:31:06;21.70;54.70
7234;DHT22;3658;47.992;10.158;2023-08-07T14:33:33;21.70;54.80
7234;DHT22;3658;47.992;10.158;2023-08-07T14:35:59;21.70;54.80
7234;DHT22;3658;47.992;10.158;2023-08-07T14:38:27;21.70;54.90
7234;DHT22;3658;47.992;10.158;2023-08-07T14:40:55;21.60;54.40
7234;DHT22;3658;47.992;10.158;2023-08-07T14:43:25;21.50;54.50
7234;DHT22;3658;47.992;10.158;2023-08-07T14:45:55;21.50;54.80
7234;DHT22;3658;47.992;10.158;2023-08-07T14:48:21;21.50;55.00
7234;DHT22;3658;47.992;10.158;2023-08-07T14:50:48;21.40;55.00
7234;DHT22;3658;47.992;10.158;2023-08-07T14:53:15;21.40;55.10
7234;DHT22;3658;47.992;10.158;2023-08-07T14:55:43;21.40;55.20
7234;DHT22;3658;47.992;10.158;2023-08-07T14:58:12;21.40;55.30
7234;DHT22;3658;47.992;10.158;2023-08-07T15:00:39;21.40;55.30
7234;DHT22;3658;47.992;10.158;2023-08-07T15:03:05;21.40;55.40
7234;DHT22;3658;47.992;10.158;2023-08-07T15:05:32;21.40;55.40
7234;DHT22;3658;47.992;10.158;2023-08-07T15:08:00;21.40;55.40
7234;DHT22;3658;47.992;10.158;2023-08-07T15:10:27;21.40;55.30
7234;DHT22;3658;47.992;10.158;2023-08-07T15:12:53;21.40;55.40
7234;DHT22;3658;47.992;10.158;2023-08-07T15:15:22;21.40;55.70
7234;DHT22;3658;47.992;10.158;2023-08-07T15:17:49;21.40;55.60
7234;DHT22;3658;47.992;10.158;2023-08-07T15:20:16;21.40;55.90
7234;DHT22;3658;47.992;10.158;2023-08-07T15:22:45;21.40;56.70
7234;DHT22;3658;47.992;10.158;2023-08-07T15:25:12;21.40;58.00
7234;DHT22;3658;47.992;10.158;2023-08-07T15:27:39;21.40;60.00
7234;DHT22;3658;47.992;10.158;2023-08-07T15:30:07;21.40;61.20
7234;DHT22;3658;47.992;10.158;2023-08-07T15:32:37;21.50;61.00
7234;DHT22;3658;47.992;10.158;2023-08-07T15:35:04;21.40;60.30
7234;DHT22;3658;47.992;10.158;2023-08-07T15:37:31;21.40;59.20
7234;DHT22;3658;47.992;10.158;2023-08-07T15:39:58;21.40;58.40
7234;DHT22;3658;47.992;10.158;2023-08-07T15:42:24;21.40;58.00
7234;DHT22;3658;47.992;10.158;2023-08-07T15:44:51;21.30;57.80
7234;DHT22;3658;47.992;10.158;2023-08-07T15:47:18;21.30;58.70